Time;durP1;ratioP1;P1;durP2;ratioP2;P2;SDS_P1;SDS_P2;PMS_P1;PMS_P2;Temp;Humidity;BMP_temperature;BMP_pressure;BME280_temperature;BME280_humidity;BME280_pressure;Samples;Min_cycle;Max_cycle;Signal;HPM_P1;HPM_P2
2023/07/19 00:00:14;;;;;;;7.87;7.27;;;20.00;99.90;;;;;;6175339;23;20360;-78
2023/07/19 00:02:55;;;;;;;10.13;7.93;;;20.00;99.90;;;;;;6175541;23;20400;-78
2023/07/19 00:05:29;;;;;;;9.03;8.10;;;20.00;99.90;;;;;;6176708;23;20523;-79
2023/07/19 00:08:15;;;;;;;10.33;8.03;;;19.90;99.90;;;;;;6172759;23;20403;-78
2023/07/19 00:10:56;;;;;;;9.50;8.40;;;19.90;99.90;;;;;;6172853;23;20448;-78
2023/07/19 00:16:22;;;;;;;8.00;7.30;;;19.90;99.90;;;;;;6168363;23;20418;-79
2023/07/19 00:19:02;;;;;;;9.33;8.43;;;20.00;99.90;;;;;;6167599;23;20494;-78
2023/07/19 00:21:33;;;;;;;9.00;8.10;;;20.00;99.90;;;;;;6158201;23;20415;-77
2023/07/19 00:24:05;;;;;;;11.57;8.60;;;19.90;99.90;;;;;;6157523;23;20454;-78
2023/07/19 00:26:56;;;;;;;8.73;7.93;;;19.90;99.90;;;;;;6156776;23;20416;-77
2023/07/19 00:29:45;;;;;;;9.67;8.53;;;19.90;99.90;;;;;;6164044;23;20408;-77
2023/07/19 00:32:34;;;;;;;;;;;;;;;;;;;;;
2023/07/19 00:35:09;;;;;;;7.73;6.93;;;20.00;99.90;;;;;;6163123;23;20419;-78
2023/07/19 00:37:48;;;;;;;8.47;7.63;;;19.90;99.90;;;;;;6158066;23;20429;-77
2023/07/19 00:40:17;;;;;;;8.63;7.80;;;19.90;99.90;;;;;;6157503;23;20415;-77
2023/07/19 00:42:48;;;;;;;10.70;7.50;;;19.90;99.90;;;;;;6156445;23;20447;-78
2023/07/19 00:45:22;;;;;;;8.23;7.33;;;19.90;99.90;;;;;;6158610;23;20493;-77
2023/07/19 00:48:01;;;;;;;10.10;7.27;;;19.80;99.90;;;;;;6159993;23;20415;-78
2023/07/19 00:50:38;;;;;;;8.53;6.87;;;19.80;99.90;;;;;;6162274;23;20419;-78
2023/07/19 00:53:11;;;;;;;8.17;7.47;;;19.80;99.90;;;;;;6162860;23;20441;-79
2023/07/19 00:55:55;;;;;;;7.33;6.70;;;19.80;99.90;;;;;;6168855;23;20492;-77
2023/07/19 00:58:32;;;;;;;8.80;7.10;;;19.80;99.90;;;;;;6163294;23;20440;-77
2023/07/19 01:01:16;;;;;;;7.67;6.90;;;19.80;99.90;;;;;;6162770;23;21048;-77
2023/07/19 01:03:47;;;;;;;9.63;7.80;;;19.80;99.90;;;;;;6160814;23;20418;-78
2023/07/19 01:06:27;;;;;;;11.00;7.87;;;19.80;99.90;;;;;;6163455;23;20482;-77
2023/07/19 01:09:01;;;;;;;8.33;7.60;;;19.80;99.90;;;;;;6163903;23;20493;-78
2023/07/19 01:11:35;;;;;;;8.53;7.77;;;19.80;99.90;;;;;;6162450;23;20429;-79
2023/07/19 01:14:34;;;;;;;8.30;7.50;;;19.80;99.90;;;;;;6158452;23;20461;-78
2023/07/19 01:20:03;;;;;;;7.80;7.00;;;19.80;99.90;;;;;;6158110;23;20449;-78
2023/07/19 01:26:10;;;;;;;8.67;7.30;;;19.70;99.90;;;;;;6152632;23;20411;-78
2023/07/19 01:28:47;;;;;;;7.97;7.23;;;19.80;99.90;;;;;;6157300;23;20495;-78
2023/07/19 01:31:30;;;;;;;8.00;7.20;;;19.80;99.90;;;;;;6157315;23;20412;-78
2023/07/19 01:34:16;;;;;;;7.77;7.03;;;19.70;99.90;;;;;;6155140;23;21064;-79
2023/07/19 01:37:01;;;;;;;8.83;6.50;;;19.70;99.90;;;;;;6156105;23;20411;-76
2023/07/19 01:43:06;;;;;;;7.93;7.23;;;19.70;99.90;;;;;;6155156;23;20428;-78
2023/07/19 01:46:04;;;;;;;9.57;7.40;;;19.70;99.90;;;;;;6157027;23;20954;-77
2023/07/19 01:48:54;;;;;;;9.57;7.70;;;19.60;99.90;;;;;;6157201;23;20435;-77
2023/07/19 01:51:51;;;;;;;;;;;;;;;;;;;;;
2023/07/19 01:54:50;;;;;;;7.53;6.80;;;19.60;99.90;;;;;;6155677;23;20641;-76
2023/07/19 01:57:46;;;;;;;8.03;7.30;;;19.50;99.90;;;;;;6155638;23;20763;-77
2023/07/19 02:03:19;;;;;;;7.93;6.93;;;19.40;99.90;;;;;;6162207;23;20443;-77
2023/07/19 02:06:22;;;;;;;6.90;6.37;;;19.40;99.90;;;;;;6160664;23;20492;-76
2023/07/19 02:09:10;;;;;;;7.80;7.10;;;19.40;99.90;;;;;;6157559;23;20437;-78
2023/07/19 02:11:57;;;;;;;8.50;6.67;;;19.40;99.90;;;;;;6155518;23;20447;-77
2023/07/19 02:14:39;;;;;;;8.20;7.40;;;19.30;99.90;;;;;;6155454;23;21040;-77
2023/07/19 02:17:28;;;;;;;7.83;7.10;;;18.90;99.90;;;;;;6157614;23;21045;-76
2023/07/19 02:20:29;;;;;;;7.17;6.43;;;19.30;99.90;;;;;;6159451;23;20440;-77
2023/07/19 02:23:22;;;;;;;8.70;7.00;;;19.20;99.90;;;;;;6157738;23;20475;-77
2023/07/19 02:26:09;;;;;;;7.70;6.90;;;19.20;99.90;;;;;;6156685;23;20879;-76
2023/07/19 02:28:54;;;;;;;7.83;7.07;;;19.20;99.90;;;;;;6157765;23;20399;-78
2023/07/19 02:31:38;;;;;;;7.90;6.60;;;19.20;99.90;;;;;;6161139;23;20439;-76
2023/07/19 02:34:18;;;;;;;7.70;6.90;;;19.20;99.90;;;;;;6155469;23;20441;-77
2023/07/19 02:37:09;;;;;;;7.40;6.80;;;19.10;99.90;;;;;;6156798;23;20394;-76
2023/07/19 02:40:09;;;;;;;7.33;6.73;;;19.10;99.90;;;;;;6156203;23;20445;-76
2023/07/19 02:42:43;;;;;;;8.70;7.17;;;19.40;99.90;;;;;;6156868;23;20413;-75
2023/07/19 02:45:26;;;;;;;8.17;7.33;;;18.80;99.90;;;;;;6156726;23;20444;-76
2023/07/19 02:48:14;;;;;;;8.20;7.50;;;19.10;99.90;;;;;;6158187;23;20397;-76
2023/07/19 02:50:58;;;;;;;8.50;7.80;;;19.10;99.90;;;;;;6157343;23;20420;-80
2023/07/19 02:53:32;;;;;;;8.60;7.70;;;19.10;99.90;;;;;;6157397;23;20429;-77
2023/07/19 02:56:23;;;;;;;7.90;6.70;;;19.00;99.90;;;;;;6157961;23;20402;-77
2023/07/19 02:59:06;;;;;;;8.80;8.03;;;19.00;99.90;;;;;;6157212;23;20441;-77
2023/07/19 03:02:00;;;;;;;7.90;7.17;;;19.00;99.90;;;;;;6157978;23;20425;-77
2023/07/19 03:04:46;;;;;;;7.80;7.03;;;19.00;99.90;;;;;;6156167;23;20438;-80
2023/07/19 03:07:38;;;;;;;8.77;6.87;;;19.00;99.90;;;;;;6158179;23;20414;-77
2023/07/19 03:10:13;;;;;;;8.13;7.43;;;18.90;99.90;;;;;;6159403;23;20516;-77
2023/07/19 03:12:47;;;;;;;11.67;7.60;;;18.80;99.90;;;;;;6159231;23;20451;-78
2023/07/19 03:15:32;;;;;;;7.93;7.13;;;18.80;99.90;;;;;;6158248;23;20434;-76
2023/07/19 03:18:24;;;;;;;8.93;8.07;;;19.00;99.90;;;;;;6157532;23;20439;-76
2023/07/19 03:21:12;;;;;;;8.53;7.80;;;18.80;99.90;;;;;;6157864;23;20408;-79
2023/07/19 03:23:58;;;;;;;8.20;7.60;;;18.70;99.90;;;;;;6156655;23;20394;-76
2023/07/19 03:29:32;;;;;;;8.20;7.47;;;18.70;99.90;;;;;;6148113;23;20886;-77
2023/07/19 03:32:17;;;;;;;9.30;7.17;;;18.70;99.90;;;;;;6155298;23;20796;-76
2023/07/19 03:34:54;;;;;;;9.87;8.03;;;18.70;99.90;;;;;;6155110;23;20419;-77
2023/07/19 03:37:46;;;;;;;;;;;;;;;;;;;;;
2023/07/19 03:40:53;;;;;;;8.53;7.20;;;18.70;99.90;;;;;;6156603;23;20958;-76
2023/07/19 03:43:55;;;;;;;10.83;8.60;;;18.60;99.90;;;;;;6157587;23;20483;-80
2023/07/19 03:46:41;;;;;;;8.60;7.80;;;18.60;99.90;;;;;;6159701;23;20765;-78
2023/07/19 03:49:31;;;;;;;10.27;7.97;;;18.60;99.90;;;;;;6159194;23;20412;-79
2023/07/19 03:52:15;;;;;;;10.53;7.70;;;18.60;99.90;;;;;;6157548;23;20404;-77
2023/07/19 03:54:58;;;;;;;10.67;8.23;;;18.50;99.90;;;;;;6156493;23;20501;-76
2023/07/19 03:57:47;;;;;;;9.33;8.43;;;18.50;99.90;;;;;;6157962;23;20952;-77
2023/07/19 04:01:10;;;;;;;9.57;7.60;;;18.50;99.90;;;;;;6158210;23;20956;-78
2023/07/19 04:03:54;;;;;;;9.53;8.00;;;18.50;99.90;;;;;;6159737;23;20447;-78
2023/07/19 04:13:02;;;;;;;8.87;8.07;;;18.50;99.90;;;;;;6165253;23;20405;-76
2023/07/19 04:15:44;;;;;;;8.70;7.80;;;18.60;99.90;;;;;;6168865;23;20413;-79
2023/07/19 04:21:16;;;;;;;7.80;7.10;;;18.50;99.90;;;;;;6165806;23;20406;-78
2023/07/19 04:23:53;;;;;;;9.50;8.47;;;18.50;99.90;;;;;;6171831;23;20417;-76
2023/07/19 04:26:43;;;;;;;8.57;7.60;;;18.50;99.90;;;;;;6171259;23;20404;-77
2023/07/19 04:29:19;;;;;;;10.80;8.20;;;18.60;99.90;;;;;;6157899;23;20412;-78
2023/07/19 04:32:03;;;;;;;8.17;7.40;;;18.60;99.90;;;;;;6158612;23;20419;-77
2023/07/19 04:34:56;;;;;;;8.10;7.30;;;18.60;99.90;;;;;;6157752;23;20431;-77
2023/07/19 04:37:48;;;;;;;8.30;7.20;;;18.60;99.90;;;;;;6157841;23;20798;-76
2023/07/19 04:40:39;;;;;;;7.77;7.07;;;18.60;99.90;;;;;;6158511;23;20447;-79
2023/07/19 04:43:56;;;;;;;8.40;7.57;;;18.60;99.90;;;;;;6158407;23;20419;-79
2023/07/19 04:46:50;;;;;;;8.50;7.10;;;18.70;99.90;;;;;;6154103;23;20416;-78
2023/07/19 04:52:24;;;;;;;9.60;8.47;;;18.90;99.90;;;;;;6155162;23;20409;-79
2023/07/19 04:55:00;;;;;;;8.10;7.07;;;18.90;99.90;;;;;;6158462;23;20439;-77
2023/07/19 04:57:31;;;;;;;8.70;7.53;;;19.00;99.90;;;;;;6156689;23;20468;-78
2023/07/19 05:00:11;;;;;;;8.23;7.43;;;19.00;99.90;;;;;;6159159;23;20434;-78
2023/07/19 05:02:39;;;;;;;9.07;7.70;;;19.10;99.90;;;;;;6163987;23;20830;-78
2023/07/19 05:05:09;;;;;;;8.63;7.83;;;19.10;99.90;;;;;;6169179;23;20763;-79
2023/07/19 05:07:37;;;;;;;10.70;7.93;;;19.20;99.90;;;;;;6165881;23;20482;-78
2023/07/19 05:10:06;;;;;;;10.20;9.20;;;19.20;99.90;;;;;;6166056;23;20468;-77
2023/07/19 05:12:33;;;;;;;8.27;7.50;;;19.30;99.90;;;;;;6162720;23;20856;-79
2023/07/19 05:15:01;;;;;;;8.67;7.87;;;19.30;99.90;;;;;;6168292;23;20459;-77
2023/07/19 05:17:29;;;;;;;9.70;7.50;;;19.40;99.90;;;;;;6167267;23;20412;-79
2023/07/19 05:19:56;;;;;;;7.73;7.03;;;19.50;99.90;;;;;;6171303;23;20507;-80
2023/07/19 05:22:24;;;;;;;9.10;7.03;;;19.50;99.90;;;;;;6170808;23;21008;-78
2023/07/19 05:24:52;;;;;;;7.70;7.00;;;19.70;99.90;;;;;;6162543;23;20995;-77
2023/07/19 05:27:28;;;;;;;10.90;8.10;;;19.70;99.90;;;;;;6165913;23;20419;-77
2023/07/19 05:30:01;;;;;;;9.57;7.20;;;19.80;99.90;;;;;;6166885;23;20434;-79
2023/07/19 05:32:33;;;;;;;8.00;7.20;;;19.90;99.90;;;;;;6163847;23;20419;-80
2023/07/19 05:35:01;;;;;;;7.77;7.07;;;19.90;99.90;;;;;;6159306;23;20429;-78
2023/07/19 05:37:29;;;;;;;7.23;6.63;;;20.10;99.90;;;;;;6158618;23;20415;-77
2023/07/19 05:39:57;;;;;;;10.93;6.87;;;20.20;99.90;;;;;;6158967;23;20900;-79
2023/07/19 05:42:27;;;;;;;8.37;7.33;;;20.30;99.90;;;;;;6159471;23;20399;-78
2023/07/19 05:44:55;;;;;;;8.80;6.80;;;20.40;99.90;;;;;;6158161;23;20543;-78
2023/07/19 05:47:23;;;;;;;10.73;7.10;;;20.50;99.90;;;;;;6159848;23;20859;-80
2023/07/19 05:49:52;;;;;;;9.37;7.57;;;20.60;99.90;;;;;;6160022;23;20886;-77
2023/07/19 05:52:30;;;;;;;12.30;6.80;;;20.70;99.90;;;;;;6164543;23;20415;-79
2023/07/19 05:55:12;;;;;;;7.50;6.27;;;20.80;99.90;;;;;;6166020;23;20435;-77
2023/07/19 05:57:40;;;;;;;10.77;6.90;;;20.90;99.90;;;;;;6164648;23;20951;-78
2023/07/19 06:00:21;;;;;;;10.40;7.10;;;21.10;99.90;;;;;;6164649;23;20439;-78
2023/07/19 06:02:55;;;;;;;11.40;6.83;;;21.20;99.90;;;;;;6164524;23;20415;-76
2023/07/19 06:05:33;;;;;;;8.63;7.07;;;21.30;99.90;;;;;;6165697;23;20413;-78
2023/07/19 06:08:04;;;;;;;6.90;6.00;;;21.40;99.90;;;;;;6165287;23;20846;-77
2023/07/19 06:10:34;;;;;;;6.60;5.87;;;21.70;99.90;;;;;;6165575;23;20929;-77
2023/07/19 06:13:03;;;;;;;7.17;6.47;;;21.70;99.90;;;;;;6160759;23;20429;-78
2023/07/19 06:15:31;;;;;;;10.17;7.57;;;21.70;99.90;;;;;;6159411;23;20436;-80
2023/07/19 06:17:59;;;;;;;9.27;8.03;;;21.90;99.90;;;;;;6159264;23;20804;-77
2023/07/19 06:20:29;;;;;;;8.43;7.57;;;22.00;99.90;;;;;;6158302;23;20424;-78
2023/07/19 06:22:57;;;;;;;9.43;7.60;;;22.00;99.90;;;;;;6158779;23;20759;-77
2023/07/19 06:25:25;;;;;;;8.83;7.87;;;22.20;99.90;;;;;;6159578;23;20409;-80
2023/07/19 06:27:53;;;;;;;8.23;7.50;;;22.20;99.90;;;;;;6162188;23;20435;-76
2023/07/19 06:30:23;;;;;;;10.43;7.27;;;22.20;99.90;;;;;;6161424;23;20829;-77
2023/07/19 06:32:50;;;;;;;8.60;6.80;;;22.30;99.90;;;;;;6164820;23;20416;-77
2023/07/19 06:35:20;;;;;;;8.53;7.47;;;22.30;99.90;;;;;;6164208;23;20412;-80
2023/07/19 06:37:49;;;;;;;13.70;8.50;;;22.40;99.90;;;;;;6164854;23;20486;-79
2023/07/19 06:40:17;;;;;;;8.67;7.50;;;22.50;99.90;;;;;;6162564;23;20428;-76
2023/07/19 06:42:49;;;;;;;12.40;6.70;;;22.50;99.90;;;;;;6161770;23;20743;-79
2023/07/19 06:45:19;;;;;;;9.00;7.40;;;22.60;99.90;;;;;;6161414;23;20423;-80
2023/07/19 06:47:56;;;;;;;10.63;7.40;;;22.70;99.90;;;;;;6160860;23;20421;-79
2023/07/19 06:50:33;;;;;;;9.47;7.37;;;22.90;99.90;;;;;;6161115;23;20400;-78
2023/07/19 06:53:06;;;;;;;9.30;7.03;;;23.00;99.90;;;;;;6159657;23;20463;-79
2023/07/19 06:55:34;;;;;;;8.63;6.83;;;23.10;99.90;;;;;;6159385;23;20860;-79
2023/07/19 06:58:18;;;;;;;9.90;7.50;;;23.10;99.90;;;;;;6158971;23;20424;-78
2023/07/19 07:00:46;;;;;;;10.17;7.50;;;23.20;99.90;;;;;;6157246;23;20436;-79
2023/07/19 07:03:26;;;;;;;9.13;7.30;;;23.20;99.90;;;;;;6157498;23;20420;-77
2023/07/19 07:06:00;;;;;;;7.60;6.73;;;23.20;99.90;;;;;;6156363;23;20435;-76
2023/07/19 07:08:29;;;;;;;9.47;6.93;;;23.40;99.90;;;;;;6157175;23;20434;-78
2023/07/19 07:11:04;;;;;;;8.57;7.40;;;23.60;99.90;;;;;;6157161;23;20423;-79
2023/07/19 07:13:48;;;;;;;10.10;6.27;;;23.60;99.90;;;;;;6155084;23;20422;-80
2023/07/19 07:16:17;;;;;;;7.40;6.70;;;23.70;99.90;;;;;;6154526;23;20431;-81
2023/07/19 07:18:55;;;;;;;13.40;6.33;;;23.80;99.90;;;;;;6153556;23;20416;-79
2023/07/19 07:21:24;;;;;;;7.13;5.67;;;23.80;99.90;;;;;;6154351;23;20444;-78
2023/07/19 07:24:01;;;;;;;5.90;5.40;;;23.80;99.90;;;;;;6153937;23;21015;-77
2023/07/19 07:26:41;;;;;;;6.40;5.40;;;24.00;99.90;;;;;;6156805;23;20416;-78
2023/07/19 07:29:15;;;;;;;5.60;4.20;;;24.20;99.90;;;;;;6156271;23;20380;-80
2023/07/19 07:31:43;;;;;;;7.00;5.17;;;24.40;99.90;;;;;;6155486;23;20729;-79
2023/07/19 07:34:22;;;;;;;6.03;5.40;;;24.60;99.90;;;;;;6155074;23;20464;-77
2023/07/19 07:37:11;;;;;;;8.27;4.37;;;24.70;99.90;;;;;;6155584;23;20423;-77
2023/07/19 07:39:40;;;;;;;8.13;4.23;;;24.70;99.90;;;;;;6155649;23;20419;-79
2023/07/19 07:42:12;;;;;;;6.53;4.50;;;24.90;99.90;;;;;;6156963;23;20538;-80
2023/07/19 07:44:43;;;;;;;3.97;3.10;;;25.00;99.90;;;;;;6155256;23;20432;-78
2023/07/19 07:47:36;;;;;;;5.03;3.43;;;25.10;99.90;;;;;;6157472;23;20407;-78
2023/07/19 07:50:19;;;;;;;4.70;3.43;;;25.20;99.90;;;;;;6158479;23;20791;-78
2023/07/19 07:52:56;;;;;;;3.63;2.80;;;25.40;99.90;;;;;;6157810;23;20416;-78
2023/07/19 07:55:36;;;;;;;3.87;2.80;;;25.60;99.90;;;;;;6154890;23;20510;-78
2023/07/19 07:58:10;;;;;;;4.53;2.80;;;25.70;99.90;;;;;;6155568;23;20412;-78
2023/07/19 08:00:38;;;;;;;5.90;2.47;;;25.90;99.90;;;;;;6154871;23;20444;-78
2023/07/19 08:03:09;;;;;;;5.13;2.83;;;26.00;99.90;;;;;;6154077;23;20483;-80
2023/07/19 08:05:51;;;;;;;2.60;2.40;;;26.00;99.90;;;;;;6155974;23;20425;-79
2023/07/19 08:08:32;;;;;;;3.10;2.30;;;26.00;99.90;;;;;;6154016;23;20439;-79
2023/07/19 08:11:06;;;;;;;2.70;2.50;;;25.80;99.90;;;;;;6154595;23;20499;-77
2023/07/19 08:13:47;;;;;;;2.60;2.40;;;25.90;99.90;;;;;;6153999;23;20471;-81
2023/07/19 08:16:18;;;;;;;3.27;2.43;;;26.20;99.90;;;;;;6154700;23;20423;-79
2023/07/19 08:18:50;;;;;;;2.60;2.17;;;26.40;99.90;;;;;;6154587;23;20412;-79
2023/07/19 08:21:33;;;;;;;3.60;1.97;;;26.50;99.90;;;;;;6154639;23;20532;-79
2023/07/19 08:24:06;;;;;;;2.93;2.73;;;26.40;99.90;;;;;;6156625;23;20483;-78
2023/07/19 08:26:39;;;;;;;5.70;2.20;;;26.50;99.90;;;;;;6162234;23;20515;-77
2023/07/19 08:29:08;;;;;;;5.50;2.70;;;26.50;99.90;;;;;;6168751;23;20480;-78
2023/07/19 08:31:35;;;;;;;5.50;2.30;;;26.50;99.90;;;;;;6172742;23;20463;-78
2023/07/19 08:34:03;;;;;;;3.80;1.90;;;26.70;99.90;;;;;;6166973;23;20428;-78
2023/07/19 08:36:30;;;;;;;2.10;2.00;;;26.60;99.90;;;;;;6173326;23;20419;-78
2023/07/19 08:38:57;;;;;;;3.00;1.90;;;26.60;99.90;;;;;;6173765;23;20416;-79
2023/07/19 08:41:31;;;;;;;2.37;2.17;;;26.80;99.90;;;;;;6164802;23;20436;-80
2023/07/19 08:43:59;;;;;;;2.60;2.40;;;27.00;99.90;;;;;;6167723;23;20459;-78
2023/07/19 08:46:29;;;;;;;2.30;2.10;;;27.00;99.90;;;;;;6171803;23;20408;-78
2023/07/19 08:48:57;;;;;;;3.13;2.20;;;26.80;98.50;;;;;;6164160;23;20420;-78
2023/07/19 08:51:26;;;;;;;3.23;2.30;;;26.80;99.20;;;;;;6167184;23;20463;-79
2023/07/19 08:53:53;;;;;;;2.10;1.90;;;27.00;99.00;;;;;;6155518;23;20490;-80
2023/07/19 08:56:22;;;;;;;1.90;1.80;;;27.30;98.60;;;;;;6156335;23;20419;-79
2023/07/19 08:58:51;;;;;;;2.13;2.00;;;27.50;96.20;;;;;;6161401;23;20436;-80
2023/07/19 09:01:20;;;;;;;2.50;2.30;;;27.50;95.70;;;;;;6160264;23;20926;-80
2023/07/19 09:03:50;;;;;;;2.43;2.23;;;27.30;94.60;;;;;;6155913;23;20439;-80
2023/07/19 09:06:25;;;;;;;2.30;2.20;;;27.30;94.70;;;;;;6154023;23;20798;-80
2023/07/19 09:08:59;;;;;;;2.03;1.80;;;27.30;94.30;;;;;;6159847;23;20917;-80
2023/07/19 09:11:30;;;;;;;2.27;2.10;;;27.50;93.70;;;;;;6161704;23;21122;-81
2023/07/19 09:14:00;;;;;;;2.30;2.07;;;27.60;91.90;;;;;;6157551;23;20514;-77
2023/07/19 09:16:32;;;;;;;3.00;2.23;;;27.40;92.70;;;;;;6157512;23;20732;-77
2023/07/19 09:19:01;;;;;;;4.77;2.10;;;27.70;91.70;;;;;;6159974;23;20814;-78
2023/07/19 09:21:42;;;;;;;2.47;1.87;;;28.10;92.10;;;;;;6156264;23;20463;-79
2023/07/19 09:24:14;;;;;;;2.37;2.17;;;28.20;91.30;;;;;;6157576;23;20459;-81
2023/07/19 09:26:48;;;;;;;5.07;2.13;;;28.40;89.80;;;;;;6156853;23;20422;-79
2023/07/19 09:29:16;;;;;;;4.80;1.93;;;28.50;89.70;;;;;;6155545;23;20898;-78
2023/07/19 09:32:01;;;;;;;2.30;2.10;;;28.30;85.40;;;;;;6157456;23;20414;-79
2023/07/19 09:34:35;;;;;;;2.80;2.37;;;28.40;86.10;;;;;;6156776;23;21033;-80
2023/07/19 09:37:05;;;;;;;2.40;2.13;;;28.70;85.80;;;;;;6160070;23;20953;-81
2023/07/19 09:39:37;;;;;;;2.20;2.00;;;29.00;82.50;;;;;;6158058;23;20444;-80
2023/07/19 09:42:05;;;;;;;2.10;2.00;;;28.90;82.90;;;;;;6157407;23;20945;-80
2023/07/19 09:44:54;;;;;;;1.83;1.73;;;28.70;81.50;;;;;;6164670;23;20435;-82
2023/07/19 09:47:29;;;;;;;1.80;1.70;;;29.10;81.20;;;;;;6162533;23;20910;-78
2023/07/19 09:49:57;;;;;;;2.90;1.80;;;29.60;80.40;;;;;;6160760;23;20372;-78
2023/07/19 09:52:26;;;;;;;5.10;2.13;;;30.00;79.30;;;;;;6160991;23;20428;-80
2023/07/19 09:54:57;;;;;;;2.70;2.23;;;29.40;76.40;;;;;;6159516;23;20436;-77
2023/07/19 09:57:32;;;;;;;1.77;1.67;;;29.70;77.90;;;;;;6159601;23;20435;-80
2023/07/19 10:00:02;;;;;;;2.17;1.97;;;29.60;77.20;;;;;;6158463;23;20389;-78
2023/07/19 10:02:31;;;;;;;1.90;1.77;;;30.10;76.70;;;;;;6159359;23;20946;-78
2023/07/19 10:05:11;;;;;;;3.37;2.40;;;30.20;75.70;;;;;;6159021;23;20460;-78
2023/07/19 10:07:42;;;;;;;2.60;1.93;;;30.10;73.50;;;;;;6159387;23;20882;-79
2023/07/19 10:10:15;;;;;;;3.40;2.10;;;30.30;75.10;;;;;;6159046;23;20479;-79
2023/07/19 10:13:04;;;;;;;;;;;;;;;;;;;;;
2023/07/19 10:15:36;;;;;;;1.73;1.60;;;30.50;73.30;;;;;;6160342;23;20450;-78
2023/07/19 10:21:10;;;;;;;2.60;2.40;;;30.60;73.40;;;;;;6153291;23;20511;-77
2023/07/19 10:32:55;;;;;;;2.03;1.83;;;32.20;69.80;;;;;;6101760;23;20400;-80
2023/07/19 10:38:32;;;;;;;2.10;1.90;;;31.90;70.50;;;;;;6152110;23;20408;-78
2023/07/19 10:41:04;;;;;;;2.23;2.00;;;31.10;71.60;;;;;;6156308;23;20439;-79
2023/07/19 10:43:36;;;;;;;3.13;2.30;;;31.70;71.70;;;;;;6162610;23;20492;-79
2023/07/19 10:46:04;;;;;;;3.53;2.00;;;31.60;70.20;;;;;;6157306;23;20785;-80
2023/07/19 10:48:33;;;;;;;3.40;2.33;;;31.50;70.00;;;;;;6156850;23;20420;-79
2023/07/19 10:51:07;;;;;;;4.13;2.30;;;31.50;70.60;;;;;;6157132;23;20408;-79
2023/07/19 10:53:43;;;;;;;4.60;2.23;;;31.80;71.40;;;;;;6156787;23;20400;-79
2023/07/19 10:56:11;;;;;;;2.87;2.10;;;32.60;70.00;;;;;;6157654;23;20416;-78
2023/07/19 10:58:41;;;;;;;4.13;2.00;;;33.20;68.10;;;;;;6158194;23;20427;-79
2023/07/19 11:01:19;;;;;;;2.37;2.17;;;33.50;66.90;;;;;;6158205;23;20463;-78
2023/07/19 11:03:49;;;;;;;4.20;2.30;;;33.10;66.80;;;;;;6155693;23;20428;-77
2023/07/19 11:06:23;;;;;;;2.33;1.90;;;32.30;68.50;;;;;;6157355;23;20420;-78
2023/07/19 11:08:51;;;;;;;2.43;2.00;;;32.50;67.50;;;;;;6157359;23;20411;-77
2023/07/19 11:11:19;;;;;;;3.97;1.80;;;31.40;68.50;;;;;;6157791;23;20428;-79
2023/07/19 11:14:00;;;;;;;2.97;2.60;;;30.90;69.60;;;;;;6155969;23;20475;-77
2023/07/19 11:16:35;;;;;;;4.57;2.17;;;31.70;69.30;;;;;;6159242;23;20411;-77
2023/07/19 11:19:06;;;;;;;4.67;2.37;;;31.30;69.20;;;;;;6160945;23;20419;-78
2023/07/19 11:21:49;;;;;;;6.57;2.07;;;31.30;69.40;;;;;;6156693;23;20498;-78
2023/07/19 11:24:20;;;;;;;2.70;2.30;;;32.10;68.10;;;;;;6154034;23;20519;-79
2023/07/19 11:29:52;;;;;;;5.90;2.20;;;32.20;68.80;;;;;;6156187;23;20877;-80
2023/07/19 11:32:27;;;;;;;2.97;2.50;;;32.20;67.20;;;;;;6156850;23;20874;-78
2023/07/19 11:50:53;;;;;;;3.03;2.70;;;30.80;68.10;;;;;;5967514;23;20491;-79
2023/07/19 11:53:20;;;;;;;2.70;2.50;;;31.00;68.90;;;;;;6069926;23;20416;-77
2023/07/19 11:55:53;;;;;;;5.00;2.50;;;31.30;68.80;;;;;;6158628;23;20440;-79
2023/07/19 11:58:49;;;;;;;2.90;2.53;;;30.90;68.50;;;;;;6158013;23;20471;-76
2023/07/19 12:01:24;;;;;;;2.57;2.37;;;30.70;68.40;;;;;;6158831;23;20440;-78
2023/07/19 12:04:02;;;;;;;3.00;2.70;;;30.60;69.20;;;;;;6158871;23;20926;-79
2023/07/19 12:06:40;;;;;;;5.80;2.43;;;30.80;69.10;;;;;;6159729;23;20480;-78
2023/07/19 12:09:16;;;;;;;3.37;2.90;;;31.20;68.50;;;;;;6165871;23;20404;-78
2023/07/19 12:11:50;;;;;;;4.87;2.30;;;31.20;67.80;;;;;;6162283;23;20404;-78
2023/07/19 12:14:25;;;;;;;5.33;2.90;;;31.30;66.90;;;;;;6161503;23;20431;-79
2023/07/19 12:17:06;;;;;;;3.03;2.30;;;31.40;67.20;;;;;;6160932;23;20404;-78
2023/07/19 12:19:37;;;;;;;2.53;2.30;;;32.00;67.20;;;;;;6161605;23;20973;-79
2023/07/19 12:22:06;;;;;;;2.33;2.23;;;32.00;66.80;;;;;;6160892;23;20440;-78
2023/07/19 12:24:37;;;;;;;2.90;2.30;;;32.10;66.90;;;;;;6162964;23;20452;-79
2023/07/19 12:27:08;;;;;;;5.87;2.63;;;32.60;66.60;;;;;;6171077;23;20412;-78
2023/07/19 12:29:37;;;;;;;4.73;2.80;;;32.90;64.70;;;;;;6167753;23;20412;-78
2023/07/19 12:32:11;;;;;;;7.70;2.90;;;31.80;67.00;;;;;;6169780;23;20404;-80
2023/07/19 12:34:46;;;;;;;3.20;2.80;;;31.80;67.50;;;;;;6172907;23;20499;-79
2023/07/19 12:37:14;;;;;;;3.83;2.83;;;32.00;67.60;;;;;;6171922;23;20479;-77
2023/07/19 12:39:50;;;;;;;4.00;2.77;;;31.80;66.50;;;;;;6173011;23;20423;-78
2023/07/19 12:42:25;;;;;;;2.83;2.57;;;31.90;66.90;;;;;;6172850;23;20436;-80
2023/07/19 12:44:59;;;;;;;4.07;2.57;;;32.30;66.70;;;;;;6170427;23;20435;-79
2023/07/19 12:47:32;;;;;;;3.70;2.93;;;32.10;65.90;;;;;;6173148;23;20412;-77
2023/07/19 12:50:02;;;;;;;4.97;2.80;;;32.00;67.20;;;;;;6170094;23;20412;-78
2023/07/19 12:52:34;;;;;;;5.80;2.87;;;31.70;67.80;;;;;;6169984;23;20771;-77
2023/07/19 12:55:02;;;;;;;4.00;2.83;;;31.80;67.50;;;;;;6169917;23;20433;-80
2023/07/19 12:57:29;;;;;;;3.90;3.10;;;32.30;65.90;;;;;;6167856;23;20416;-79
2023/07/19 12:59:59;;;;;;;5.70;2.93;;;31.40;66.60;;;;;;6160899;23;20426;-79
2023/07/19 13:02:30;;;;;;;3.20;2.73;;;31.10;68.10;;;;;;6162571;23;20973;-78
2023/07/19 13:04:58;;;;;;;6.30;3.17;;;31.30;68.50;;;;;;6163638;23;20504;-81
2023/07/19 13:07:30;;;;;;;3.23;2.90;;;31.40;68.30;;;;;;6163285;23;20421;-80
2023/07/19 13:10:01;;;;;;;3.30;3.00;;;31.60;67.70;;;;;;6166313;23;20419;-78
2023/07/19 13:12:45;;;;;;;3.30;3.00;;;31.40;68.40;;;;;;6170056;23;20484;-79
2023/07/19 13:15:19;;;;;;;3.80;2.90;;;31.70;68.80;;;;;;6173092;23;20447;-82
2023/07/19 13:17:50;;;;;;;3.97;3.57;;;31.90;68.80;;;;;;6176401;23;20408;-78
2023/07/19 13:20:23;;;;;;;4.07;3.70;;;31.60;69.30;;;;;;6171715;23;20412;-79
2023/07/19 13:22:52;;;;;;;4.97;3.50;;;31.30;69.60;;;;;;6166334;23;20428;-80
2023/07/19 13:25:21;;;;;;;5.57;3.13;;;31.00;71.30;;;;;;6164469;23;20503;-79
2023/07/19 13:27:55;;;;;;;3.17;2.87;;;31.20;71.40;;;;;;6166185;23;20448;-79
2023/07/19 13:30:27;;;;;;;6.30;3.63;;;31.70;71.90;;;;;;6164433;23;20408;-79
2023/07/19 13:32:59;;;;;;;4.40;4.00;;;31.50;71.90;;;;;;6165783;23;20385;-79
2023/07/19 13:35:29;;;;;;;6.53;3.87;;;31.30;72.70;;;;;;6167100;23;20436;-79
2023/07/19 13:37:59;;;;;;;6.43;4.47;;;31.80;73.30;;;;;;6163910;23;20916;-78
2023/07/19 13:40:35;;;;;;;5.57;4.00;;;31.70;73.60;;;;;;6160239;23;20428;-79
2023/07/19 13:43:04;;;;;;;5.00;3.43;;;31.70;73.90;;;;;;6163514;23;20489;-80
2023/07/19 13:45:34;;;;;;;4.63;4.23;;;31.80;75.00;;;;;;6165396;23;20525;-79
2023/07/19 13:48:05;;;;;;;6.73;3.87;;;31.10;73.80;;;;;;6165247;23;20404;-78
2023/07/19 13:50:36;;;;;;;4.20;3.90;;;31.20;74.00;;;;;;6166545;23;20377;-80
2023/07/19 13:53:08;;;;;;;4.07;3.73;;;30.70;74.40;;;;;;6165083;23;20431;-79
2023/07/19 13:55:36;;;;;;;4.60;3.20;;;30.80;74.50;;;;;;6161490;23;20440;-78
2023/07/19 13:58:05;;;;;;;3.70;3.40;;;30.70;71.90;;;;;;6157913;23;20393;-77
2023/07/19 14:00:40;;;;;;;3.67;3.37;;;30.90;71.00;;;;;;6162855;23;20412;-79
2023/07/19 14:03:08;;;;;;;3.73;3.43;;;31.10;68.70;;;;;;6163834;23;20446;-79
2023/07/19 14:05:36;;;;;;;4.10;3.70;;;30.90;71.50;;;;;;6159457;23;20421;-78
2023/07/19 14:08:14;;;;;;;3.83;3.63;;;31.00;73.60;;;;;;6159535;23;20774;-78
2023/07/19 14:10:41;;;;;;;4.97;3.63;;;30.20;74.60;;;;;;6160702;23;20396;-78
2023/07/19 14:13:14;;;;;;;8.37;3.33;;;30.30;75.00;;;;;;6162153;23;20404;-79
2023/07/19 14:15:42;;;;;;;4.03;3.73;;;30.70;74.20;;;;;;6161206;23;20425;-78
2023/07/19 14:18:11;;;;;;;3.83;3.53;;;31.00;73.60;;;;;;6161487;23;20428;-78
2023/07/19 14:20:44;;;;;;;4.00;3.70;;;30.80;71.80;;;;;;6162282;23;20921;-79
2023/07/19 14:23:15;;;;;;;4.00;3.60;;;30.70;72.40;;;;;;6159728;23;20423;-78
2023/07/19 14:25:45;;;;;;;3.67;3.30;;;30.90;71.60;;;;;;6163344;23;20436;-78
2023/07/19 14:28:12;;;;;;;4.53;3.00;;;31.20;71.30;;;;;;6163526;23;20921;-78
2023/07/19 14:30:40;;;;;;;3.67;3.37;;;31.00;70.20;;;;;;6162773;23;20412;-79
2023/07/19 14:33:07;;;;;;;6.63;3.67;;;30.80;71.40;;;;;;6162026;23;20404;-77
2023/07/19 14:35:34;;;;;;;3.53;3.33;;;30.70;72.40;;;;;;6159861;23;20483;-79
2023/07/19 14:38:04;;;;;;;4.60;3.40;;;31.20;71.30;;;;;;6159251;23;20412;-77
2023/07/19 14:40:35;;;;;;;3.43;3.13;;;30.70;71.90;;;;;;6160951;23;20478;-79